sensor_id;sensor_type;location;lat;lon;timestamp;pressure;altitude;pressure_sealevel;temperature;humidity
29121;BME280;16191;49.548;8.658;2023-02-23T00:01:41;100049.97;;;10.42;100.00
29121;BME280;16191;49.548;8.658;2023-02-23T00:04:07;100052.78;;;10.37;100.00
29121;BME280;16191;49.548;8.658;2023-02-23T00:06:35;100052.72;;;10.39;100.00
29121;BME280;16191;49.548;8.658;2023-02-23T00:09:03;100049.41;;;10.35;100.00
29121;BME280;16191;49.548;8.658;2023-02-23T00:11:51;100044.97;;;10.37;100.00
29121;BME280;16191;49.548;8.658;2023-02-23T00:14:19;100046.91;;;10.32;100.00
29121;BME280;16191;49.548;8.658;2023-02-23T00:16:45;100050.19;;;10.37;100.00
29121;BME280;16191;49.548;8.658;2023-02-23T00:19:12;100051.88;;;10.38;100.00
29121;BME280;16191;49.548;8.658;2023-02-23T00:21:43;100051.22;;;10.33;100.00
29121;BME280;16191;49.548;8.658;2023-02-23T00:24:12;100048.69;;;10.32;100.00
29121;BME280;16191;49.548;8.658;2023-02-23T00:26:41;100050.44;;;10.31;100.00
29121;BME280;16191;49.548;8.658;2023-02-23T00:29:14;100052.53;;;10.23;100.00
29121;BME280;16191;49.548;8.658;2023-02-23T00:31:44;100052.25;;;10.29;100.00
29121;BME280;16191;49.548;8.658;2023-02-23T00:34:13;100048.16;;;10.23;100.00
29121;BME280;16191;49.548;8.658;2023-02-23T00:36:41;100047.25;;;10.24;100.00
29121;BME280;16191;49.548;8.658;2023-02-23T00:39:10;100049.13;;;10.21;100.00
29121;BME280;16191;49.548;8.658;2023-02-23T00:41:55;100061.50;;;10.16;100.00
29121;BME280;16191;49.548;8.658;2023-02-23T00:44:23;100056.28;;;10.16;100.00
29121;BME280;16191;49.548;8.658;2023-02-23T00:46:51;100052.94;;;10.12;100.00
29121;BME280;16191;49.548;8.658;2023-02-23T00:49:20;100052.88;;;10.14;100.00
29121;BME280;16191;49.548;8.658;2023-02-23T00:51:47;100061.56;;;10.14;100.00
29121;BME280;16191;49.548;8.658;2023-02-23T00:54:15;100050.47;;;10.09;100.00
29121;BME280;16191;49.548;8.658;2023-02-23T00:56:44;100056.59;;;10.08;100.00
29121;BME280;16191;49.548;8.658;2023-02-23T00:59:11;100055.03;;;10.04;100.00
29121;BME280;16191;49.548;8.658;2023-02-23T01:01:40;100056.06;;;10.00;100.00
29121;BME280;16191;49.548;8.658;2023-02-23T01:04:08;100055.03;;;10.04;100.00
29121;BME280;16191;49.548;8.658;2023-02-23T01:06:36;100055.75;;;10.08;100.00
29121;BME280;16191;49.548;8.658;2023-02-23T01:09:08;100050.59;;;10.06;100.00
29121;BME280;16191;49.548;8.658;2023-02-23T01:11:37;100057.88;;;9.98;100.00
29121;BME280;16191;49.548;8.658;2023-02-23T01:14:03;100058.66;;;10.00;100.00
29121;BME280;16191;49.548;8.658;2023-02-23T01:16:34;100057.81;;;10.00;100.00
29121;BME280;16191;49.548;8.658;2023-02-23T01:19:20;100058.88;;;9.95;100.00
29121;BME280;16191;49.548;8.658;2023-02-23T01:22:07;100053.50;;;9.98;100.00
29121;BME280;16191;49.548;8.658;2023-02-23T01:24:54;100058.66;;;10.00;100.00
29121;BME280;16191;49.548;8.658;2023-02-23T01:27:41;100056.28;;;9.95;100.00
29121;BME280;16191;49.548;8.658;2023-02-23T01:30:29;100050.97;;;9.97;100.00
29121;BME280;16191;49.548;8.658;2023-02-23T01:33:16;100065.06;;;9.93;100.00
29121;BME280;16191;49.548;8.658;2023-02-23T01:35:42;100058.03;;;9.95;100.00
29121;BME280;16191;49.548;8.658;2023-02-23T01:38:11;100059.78;;;9.94;100.00
29121;BME280;16191;49.548;8.658;2023-02-23T01:40:41;100051.06;;;9.95;100.00
29121;BME280;16191;49.548;8.658;2023-02-23T01:43:12;100047.44;;;9.98;100.00
29121;BME280;16191;49.548;8.658;2023-02-23T01:45:44;100050.97;;;9.97;100.00
29121;BME280;16191;49.548;8.658;2023-02-23T01:48:17;100048.44;;;9.95;100.00
29121;BME280;16191;49.548;8.658;2023-02-23T01:51:10;100047.66;;;9.93;100.00
29121;BME280;16191;49.548;8.658;2023-02-23T01:53:41;100055.53;;;9.92;100.00
29121;BME280;16191;49.548;8.658;2023-02-23T01:56:21;100049.59;;;9.88;100.00
29121;BME280;16191;49.548;8.658;2023-02-23T01:58:51;100043.34;;;9.92;100.00
29121;BME280;16191;49.548;8.658;2023-02-23T02:01:19;100047.00;;;9.88;100.00
29121;BME280;16191;49.548;8.658;2023-02-23T02:03:50;100041.84;;;9.87;100.00
29121;BME280;16191;49.548;8.658;2023-02-23T02:06:20;100046.09;;;9.89;100.00
29121;BME280;16191;49.548;8.658;2023-02-23T02:08:51;100039.19;;;9.88;100.00
29121;BME280;16191;49.548;8.658;2023-02-23T02:11:22;100041.13;;;9.83;100.00
29121;BME280;16191;49.548;8.658;2023-02-23T02:14:06;100045.53;;;9.81;100.00
29121;BME280;16191;49.548;8.658;2023-02-23T02:22:56;100039.47;;;9.81;100.00
29121;BME280;16191;49.548;8.658;2023-02-23T02:25:45;100031.72;;;9.79;100.00
29121;BME280;16191;49.548;8.658;2023-02-23T02:28:29;100033.19;;;9.86;100.00
29121;BME280;16191;49.548;8.658;2023-02-23T02:31:18;100029.78;;;9.84;100.00
29121;BME280;16191;49.548;8.658;2023-02-23T02:36:46;100026.63;;;9.76;100.00
29121;BME280;16191;49.548;8.658;2023-02-23T02:42:31;100028.84;;;9.65;100.00
29121;BME280;16191;49.548;8.658;2023-02-23T02:45:14;100026.91;;;9.70;100.00
29121;BME280;16191;49.548;8.658;2023-02-23T02:50:40;100033.75;;;9.73;100.00
29121;BME280;16191;49.548;8.658;2023-02-23T02:53:15;100025.22;;;9.69;100.00
29121;BME280;16191;49.548;8.658;2023-02-23T02:55:50;100026.00;;;9.71;100.00
29121;BME280;16191;49.548;8.658;2023-02-23T02:58:18;100029.50;;;9.70;100.00
29121;BME280;16191;49.548;8.658;2023-02-23T03:00:47;100026.84;;;9.72;100.00
29121;BME280;16191;49.548;8.658;2023-02-23T03:03:40;100031.00;;;9.76;100.00
29121;BME280;16191;49.548;8.658;2023-02-23T03:06:33;100031.78;;;9.78;100.00
29121;BME280;16191;49.548;8.658;2023-02-23T03:09:43;100025.28;;;9.68;100.00
29121;BME280;16191;49.548;8.658;2023-02-23T03:12:54;100024.03;;;9.76;100.00
29121;BME280;16191;49.548;8.658;2023-02-23T03:15:55;100024.19;;;9.73;100.00
29121;BME280;16191;49.548;8.658;2023-02-23T03:19:00;100019.72;;;9.75;100.00
29121;BME280;16191;49.548;8.658;2023-02-23T03:22:04;100022.16;;;9.80;100.00
29121;BME280;16191;49.548;8.658;2023-02-23T03:25:13;100025.72;;;9.77;100.00
29121;BME280;16191;49.548;8.658;2023-02-23T03:28:18;100016.16;;;9.78;100.00
29121;BME280;16191;49.548;8.658;2023-02-23T03:31:24;100020.28;;;9.83;100.00
29121;BME280;16191;49.548;8.658;2023-02-23T03:37:19;100014.22;;;9.83;100.00
29121;BME280;16191;49.548;8.658;2023-02-23T03:40:15;100017.66;;;9.83;100.00
29121;BME280;16191;49.548;8.658;2023-02-23T03:43:05;100013.31;;;9.84;100.00
29121;BME280;16191;49.548;8.658;2023-02-23T03:45:54;100018.63;;;9.81;100.00
29121;BME280;16191;49.548;8.658;2023-02-23T03:48:43;100013.31;;;9.84;100.00
29121;BME280;16191;49.548;8.658;2023-02-23T03:51:33;100018.50;;;9.84;100.00
29121;BME280;16191;49.548;8.658;2023-02-23T03:54:25;100020.16;;;9.86;100.00
29121;BME280;16191;49.548;8.658;2023-02-23T03:57:15;100018.50;;;9.84;100.00
29121;BME280;16191;49.548;8.658;2023-02-23T04:00:08;100016.69;;;9.86;100.00
29121;BME280;16191;49.548;8.658;2023-02-23T04:02:57;100018.38;;;9.87;100.00
29121;BME280;16191;49.548;8.658;2023-02-23T04:05:45;100018.44;;;9.85;100.00
29121;BME280;16191;49.548;8.658;2023-02-23T04:08:35;100022.94;;;9.82;100.00
29121;BME280;16191;49.548;8.658;2023-02-23T04:11:39;100028.28;;;9.79;100.00
29121;BME280;16191;49.548;8.658;2023-02-23T04:14:40;100025.72;;;9.77;100.00
29121;BME280;16191;49.548;8.658;2023-02-23T04:17:11;100027.53;;;9.75;100.00
29121;BME280;16191;49.548;8.658;2023-02-23T04:19:37;100029.19;;;9.78;100.00
29121;BME280;16191;49.548;8.658;2023-02-23T04:22:04;100033.41;;;9.80;100.00
29121;BME280;16191;49.548;8.658;2023-02-23T04:24:31;100034.16;;;9.84;100.00
29121;BME280;16191;49.548;8.658;2023-02-23T04:26:58;100036.34;;;9.73;100.00
29121;BME280;16191;49.548;8.658;2023-02-23T04:29:25;100027.81;;;9.69;100.00
29121;BME280;16191;49.548;8.658;2023-02-23T04:31:52;100033.94;;;9.68;100.00
29121;BME280;16191;49.548;8.658;2023-02-23T04:34:19;100032.19;;;9.69;100.00
29121;BME280;16191;49.548;8.658;2023-02-23T04:36:46;100030.34;;;9.71;100.00
29121;BME280;16191;49.548;8.658;2023-02-23T04:39:13;100033.94;;;9.68;100.00
29121;BME280;16191;49.548;8.658;2023-02-23T04:41:41;100040.97;;;9.66;100.00
29121;BME280;16191;49.548;8.658;2023-02-23T04:44:07;100039.25;;;9.65;100.00
29121;BME280;16191;49.548;8.658;2023-02-23T04:46:34;100039.09;;;9.70;100.00
29121;BME280;16191;49.548;8.658;2023-02-23T04:49:00;100041.41;;;9.76;100.00
29121;BME280;16191;49.548;8.658;2023-02-23T04:51:27;100045.09;;;9.72;100.00
29121;BME280;16191;49.548;8.658;2023-02-23T04:53:57;100047.63;;;9.73;100.00
29121;BME280;16191;49.548;8.658;2023-02-23T04:56:24;100044.41;;;9.67;100.00
29121;BME280;16191;49.548;8.658;2023-02-23T04:58:51;100043.69;;;9.63;100.00
29121;BME280;16191;49.548;8.658;2023-02-23T05:01:18;100051.38;;;9.66;100.00
29121;BME280;16191;49.548;8.658;2023-02-23T05:03:48;100052.28;;;9.65;100.00
29121;BME280;16191;49.548;8.658;2023-02-23T05:06:16;100055.00;;;9.62;100.00
29121;BME280;16191;49.548;8.658;2023-02-23T05:08:43;100051.84;;;9.54;100.00
29121;BME280;16191;49.548;8.658;2023-02-23T05:11:11;100051.78;;;9.55;100.00
29121;BME280;16191;49.548;8.658;2023-02-23T05:13:38;100059.59;;;9.55;100.00
29121;BME280;16191;49.548;8.658;2023-02-23T05:16:05;100057.16;;;9.52;100.00
29121;BME280;16191;49.548;8.658;2023-02-23T05:18:32;100065.56;;;9.59;100.00
29121;BME280;16191;49.548;8.658;2023-02-23T05:21:04;100063.84;;;9.58;100.00
29121;BME280;16191;49.548;8.658;2023-02-23T05:23:33;100062.22;;;9.55;100.00
29121;BME280;16191;49.548;8.658;2023-02-23T05:26:02;100069.13;;;9.56;100.00
29121;BME280;16191;49.548;8.658;2023-02-23T05:28:29;100066.78;;;9.50;100.00
29121;BME280;16191;49.548;8.658;2023-02-23T05:30:56;100063.13;;;9.54;100.00
29121;BME280;16191;49.548;8.658;2023-02-23T05:33:23;100058.75;;;9.55;100.00
29121;BME280;16191;49.548;8.658;2023-02-23T05:35:50;100061.13;;;9.61;100.00
29121;BME280;16191;49.548;8.658;2023-02-23T05:38:16;100059.50;;;9.58;100.00
29121;BME280;16191;49.548;8.658;2023-02-23T05:40:43;100063.91;;;9.56;100.00
29121;BME280;16191;49.548;8.658;2023-02-23T05:43:10;100065.78;;;9.53;100.00
29121;BME280;16191;49.548;8.658;2023-02-23T05:45:41;100070.19;;;9.52;100.00
29121;BME280;16191;49.548;8.658;2023-02-23T05:48:10;100070.03;;;9.55;100.00
29121;BME280;16191;49.548;8.658;2023-02-23T05:50:37;100064.59;;;9.61;100.00
29121;BME280;16191;49.548;8.658;2023-02-23T05:53:04;100076.09;;;9.56;100.00
29121;BME280;16191;49.548;8.658;2023-02-23T05:55:31;100069.38;;;9.50;100.00
29121;BME280;16191;49.548;8.658;2023-02-23T05:57:58;100073.75;;;9.50;100.00
29121;BME280;16191;49.548;8.658;2023-02-23T06:00:25;100070.28;;;9.49;100.00
29121;BME280;16191;49.548;8.658;2023-02-23T06:02:51;100070.19;;;9.52;100.00
29121;BME280;16191;49.548;8.658;2023-02-23T06:05:19;100069.38;;;9.50;100.00
29121;BME280;16191;49.548;8.658;2023-02-23T06:07:46;100066.84;;;9.49;100.00
29121;BME280;16191;49.548;8.658;2023-02-23T06:10:13;100071.84;;;9.53;100.00
29121;BME280;16191;49.548;8.658;2023-02-23T06:12:40;100072.78;;;9.52;100.00
29121;BME280;16191;49.548;8.658;2023-02-23T06:15:07;100073.75;;;9.50;100.00
29121;BME280;16191;49.548;8.658;2023-02-23T06:17:34;100074.66;;;9.49;100.00
29121;BME280;16191;49.548;8.658;2023-02-23T06:20:02;100077.31;;;9.47;100.00
29121;BME280;16191;49.548;8.658;2023-02-23T06:22:30;100076.34;;;9.50;100.00
29121;BME280;16191;49.548;8.658;2023-02-23T06:24:57;100075.66;;;9.45;100.00
29121;BME280;16191;49.548;8.658;2023-02-23T06:27:24;100085.06;;;9.49;100.00
29121;BME280;16191;49.548;8.658;2023-02-23T06:29:51;100091.19;;;9.48;100.00
29121;BME280;16191;49.548;8.658;2023-02-23T06:32:18;100082.63;;;9.44;100.00
29121;BME280;16191;49.548;8.658;2023-02-23T06:34:47;100086.63;;;9.53;100.00
29121;BME280;16191;49.548;8.658;2023-02-23T06:37:14;100089.38;;;9.50;100.00
29121;BME280;16191;49.548;8.658;2023-02-23T06:39:41;100088.31;;;9.54;100.00
29121;BME280;16191;49.548;8.658;2023-02-23T06:42:07;100091.19;;;9.48;100.00
29121;BME280;16191;49.548;8.658;2023-02-23T06:44:34;100091.59;;;9.59;100.00
29121;BME280;16191;49.548;8.658;2023-02-23T06:47:03;100096.88;;;9.57;100.00
29121;BME280;16191;49.548;8.658;2023-02-23T06:49:31;100096.03;;;9.57;100.00
29121;BME280;16191;49.548;8.658;2023-02-23T06:51:58;100099.72;;;9.51;100.00
29121;BME280;16191;49.548;8.658;2023-02-23T06:54:25;100102.81;;;9.61;100.00
29121;BME280;16191;49.548;8.658;2023-02-23T06:56:52;100101.91;;;9.62;100.00
29121;BME280;16191;49.548;8.658;2023-02-23T06:59:22;100102.06;;;9.57;100.00
29121;BME280;16191;49.548;8.658;2023-02-23T07:01:49;100110.84;;;9.55;100.00
29121;BME280;16191;49.548;8.658;2023-02-23T07:04:16;100111.53;;;9.60;100.00
29121;BME280;16191;49.548;8.658;2023-02-23T07:06:43;100105.91;;;9.49;100.00
29121;BME280;16191;49.548;8.658;2023-02-23T07:09:10;100112.13;;;9.45;100.00
29121;BME280;16191;49.548;8.658;2023-02-23T07:11:38;100115.59;;;9.45;100.00
29121;BME280;16191;49.548;8.658;2023-02-23T07:14:09;100118.81;;;9.52;100.00
29121;BME280;16191;49.548;8.658;2023-02-23T07:16:47;100117.75;;;9.56;100.00
29121;BME280;16191;49.548;8.658;2023-02-23T07:19:13;100117.97;;;9.51;100.00
29121;BME280;16191;49.548;8.658;2023-02-23T07:21:40;100121.22;;;9.56;100.00
29121;BME280;16191;49.548;8.658;2023-02-23T07:24:07;100125.56;;;9.56;100.00
29121;BME280;16191;49.548;8.658;2023-02-23T07:26:34;100120.19;;;9.60;100.00
29121;BME280;16191;49.548;8.658;2023-02-23T07:29:02;100122.69;;;9.63;100.00
29121;BME280;16191;49.548;8.658;2023-02-23T07:31:28;100125.06;;;9.70;100.00
29121;BME280;16191;49.548;8.658;2023-02-23T07:33:55;100121.56;;;9.71;100.00
29121;BME280;16191;49.548;8.658;2023-02-23T07:36:23;100124.28;;;9.68;100.00
29121;BME280;16191;49.548;8.658;2023-02-23T07:38:50;100131.25;;;9.67;100.00
29121;BME280;16191;49.548;8.658;2023-02-23T07:41:17;100128.56;;;9.69;100.00
29121;BME280;16191;49.548;8.658;2023-02-23T07:43:44;100121.72;;;9.66;100.00
29121;BME280;16191;49.548;8.658;2023-02-23T07:46:11;100125.13;;;9.68;100.00
29121;BME280;16191;49.548;8.658;2023-02-23T07:48:40;100124.34;;;9.66;100.00
29121;BME280;16191;49.548;8.658;2023-02-23T07:51:11;100131.06;;;9.72;100.00
29121;BME280;16191;49.548;8.658;2023-02-23T07:53:40;100139.53;;;9.77;100.00
29121;BME280;16191;49.548;8.658;2023-02-23T07:56:08;100129.94;;;9.77;100.00
29121;BME280;16191;49.548;8.658;2023-02-23T07:58:38;100130.44;;;9.65;100.00
29121;BME280;16191;49.548;8.658;2023-02-23T08:01:06;100132.81;;;9.71;100.00
29121;BME280;16191;49.548;8.658;2023-02-23T08:03:33;100137.84;;;9.76;100.00
29121;BME280;16191;49.548;8.658;2023-02-23T08:06:00;100131.78;;;9.75;100.00
29121;BME280;16191;49.548;8.658;2023-02-23T08:08:27;100133.53;;;9.75;100.00
29121;BME280;16191;49.548;8.658;2023-02-23T08:11:01;100143.88;;;9.76;100.00
29121;BME280;16191;49.548;8.658;2023-02-23T08:13:28;100141.59;;;9.69;100.00
29121;BME280;16191;49.548;8.658;2023-02-23T08:15:55;100145.13;;;9.68;100.00
29121;BME280;16191;49.548;8.658;2023-02-23T08:18:23;100146.03;;;9.67;100.00
29121;BME280;16191;49.548;8.658;2023-02-23T08:20:56;100139.97;;;9.66;100.00
29121;BME280;16191;49.548;8.658;2023-02-23T08:23:23;100142.41;;;9.71;100.00
29121;BME280;16191;49.548;8.658;2023-02-23T08:25:49;100143.31;;;9.70;100.00
29121;BME280;16191;49.548;8.658;2023-02-23T08:28:16;100146.69;;;9.72;100.00
29121;BME280;16191;49.548;8.658;2023-02-23T08:30:43;100145.13;;;9.68;100.00
29121;BME280;16191;49.548;8.658;2023-02-23T08:33:09;100144.22;;;9.69;100.00
29121;BME280;16191;49.548;8.658;2023-02-23T08:35:36;100157.19;;;9.70;100.00
29121;BME280;16191;49.548;8.658;2023-02-23T08:38:03;100150.09;;;9.74;100.00
29121;BME280;16191;49.548;8.658;2023-02-23T08:40:30;100157.06;;;9.73;100.00
29121;BME280;16191;49.548;8.658;2023-02-23T08:42:57;100152.72;;;9.74;100.00
29121;BME280;16191;49.548;8.658;2023-02-23T08:45:24;100156.28;;;9.71;100.00
29121;BME280;16191;49.548;8.658;2023-02-23T08:47:53;100158.44;;;9.82;100.00
29121;BME280;16191;49.548;8.658;2023-02-23T08:50:20;100155.84;;;9.82;100.00
29121;BME280;16191;49.548;8.658;2023-02-23T08:52:47;100153.00;;;9.88;100.00
29121;BME280;16191;49.548;8.658;2023-02-23T08:55:14;100160.66;;;9.92;100.00
29121;BME280;16191;49.548;8.658;2023-02-23T08:57:43;100159.59;;;9.96;100.00
29121;BME280;16191;49.548;8.658;2023-02-23T09:00:10;100151.97;;;9.92;100.00
29121;BME280;16191;49.548;8.658;2023-02-23T09:02:44;100165.59;;;9.98;100.00
29121;BME280;16191;49.548;8.658;2023-02-23T09:05:13;100157.59;;;10.03;100.00
29121;BME280;16191;49.548;8.658;2023-02-23T09:07:41;100162.41;;;10.14;100.00
29121;BME280;16191;49.548;8.658;2023-02-23T09:10:12;100157.59;;;10.03;100.00
29121;BME280;16191;49.548;8.658;2023-02-23T09:12:40;100149.34;;;10.14;100.00
29121;BME280;16191;49.548;8.658;2023-02-23T09:15:07;100152.94;;;10.11;100.00
29121;BME280;16191;49.548;8.658;2023-02-23T09:17:34;100155.53;;;10.11;100.00
29121;BME280;16191;49.548;8.658;2023-02-23T09:20:23;100156.66;;;10.27;100.00
29121;BME280;16191;49.548;8.658;2023-02-23T09:22:52;100148.88;;;10.26;100.00
29121;BME280;16191;49.548;8.658;2023-02-23T09:25:20;100158.09;;;10.35;100.00
29121;BME280;16191;49.548;8.658;2023-02-23T09:27:52;100153.06;;;10.30;100.00
29121;BME280;16191;49.548;8.658;2023-02-23T09:30:20;100149.38;;;10.36;100.00
29121;BME280;16191;49.548;8.658;2023-02-23T09:32:49;100152.69;;;10.39;100.00
29121;BME280;16191;49.548;8.658;2023-02-23T09:35:18;100150.66;;;10.46;100.00
29121;BME280;16191;49.548;8.658;2023-02-23T09:37:50;100153.44;;;10.41;100.00
29121;BME280;16191;49.548;8.658;2023-02-23T09:40:22;100151.63;;;10.43;100.00
29121;BME280;16191;49.548;8.658;2023-02-23T09:43:05;100161.03;;;10.47;100.00
29121;BME280;16191;49.548;8.658;2023-02-23T09:45:38;100161.03;;;10.47;100.00
29121;BME280;16191;49.548;8.658;2023-02-23T09:50:42;100159.53;;;10.62;100.00
29121;BME280;16191;49.548;8.658;2023-02-23T09:53:38;100152.31;;;10.69;100.00
29121;BME280;16191;49.548;8.658;2023-02-23T09:56:11;100153.38;;;10.83;100.00
29121;BME280;16191;49.548;8.658;2023-02-23T09:58:39;100145.56;;;10.83;100.00
29121;BME280;16191;49.548;8.658;2023-02-23T10:04:03;100156.22;;;11.18;100.00
29121;BME280;16191;49.548;8.658;2023-02-23T10:06:33;100158.09;;;11.34;100.00
29121;BME280;16191;49.548;8.658;2023-02-23T10:12:07;100150.88;;;11.21;100.00
29121;BME280;16191;49.548;8.658;2023-02-23T10:17:28;100148.91;;;11.45;100.00
29121;BME280;16191;49.548;8.658;2023-02-23T10:22:33;100148.53;;;11.15;100.00
29121;BME280;16191;49.548;8.658;2023-02-23T10:25:05;100145.06;;;11.14;100.00
29121;BME280;16191;49.548;8.658;2023-02-23T10:27:39;100144.81;;;11.39;100.00
29121;BME280;16191;49.548;8.658;2023-02-23T10:30:27;100148.91;;;11.63;100.00
29121;BME280;16191;49.548;8.658;2023-02-23T10:33:09;100145.59;;;11.60;100.00
29121;BME280;16191;49.548;8.658;2023-02-23T10:35:39;100143.25;;;11.54;100.00
29121;BME280;16191;49.548;8.658;2023-02-23T10:38:11;100146.66;;;11.56;100.00
29121;BME280;16191;49.548;8.658;2023-02-23T10:40:40;100146.50;;;11.40;100.00
29121;BME280;16191;49.548;8.658;2023-02-23T10:43:10;100143.13;;;11.57;100.00
29121;BME280;16191;49.548;8.658;2023-02-23T10:45:47;100137.22;;;12.25;100.00
29121;BME280;16191;49.548;8.658;2023-02-23T10:50:53;100134.63;;;12.25;100.00
29121;BME280;16191;49.548;8.658;2023-02-23T10:53:26;100129.78;;;12.52;100.00
29121;BME280;16191;49.548;8.658;2023-02-23T10:56:22;100137.78;;;12.49;100.00
29121;BME280;16191;49.548;8.658;2023-02-23T10:58:55;100142.44;;;12.08;100.00
29121;BME280;16191;49.548;8.658;2023-02-23T11:01:33;100131.56;;;12.52;100.00
29121;BME280;16191;49.548;8.658;2023-02-23T11:04:29;100130.03;;;12.98;100.00
29121;BME280;16191;49.548;8.658;2023-02-23T11:07:15;100127.72;;;12.92;100.00
29121;BME280;16191;49.548;8.658;2023-02-23T11:09:43;100131.53;;;13.02;100.00
29121;BME280;16191;49.548;8.658;2023-02-23T11:12:37;100127.50;;;12.79;100.00
29121;BME280;16191;49.548;8.658;2023-02-23T11:15:27;100127.91;;;13.04;100.00
29121;BME280;16191;49.548;8.658;2023-02-23T11:18:20;100128.25;;;12.98;100.00
29121;BME280;16191;49.548;8.658;2023-02-23T11:20:48;100126.41;;;12.83;100.00
29121;BME280;16191;49.548;8.658;2023-02-23T11:23:27;100131.69;;;12.49;100.00
29121;BME280;16191;49.548;8.658;2023-02-23T11:25:58;100108.34;;;12.61;100.00
29121;BME280;16191;49.548;8.658;2023-02-23T11:28:35;100118.63;;;12.99;100.00
29121;BME280;16191;49.548;8.658;2023-02-23T11:31:11;100114.41;;;12.96;100.00
29121;BME280;16191;49.548;8.658;2023-02-23T11:33:40;100114.00;;;13.37;100.00
29121;BME280;16191;49.548;8.658;2023-02-23T11:39:20;100108.38;;;12.94;100.00
29121;BME280;16191;49.548;8.658;2023-02-23T11:42:19;100110.16;;;12.94;100.00
29121;BME280;16191;49.548;8.658;2023-02-23T11:45:15;100114.41;;;12.79;100.00
29121;BME280;16191;49.548;8.658;2023-02-23T11:47:48;100102.84;;;12.83;100.00
29121;BME280;16191;49.548;8.658;2023-02-23T11:50:29;100102.94;;;12.82;100.00
29121;BME280;16191;49.548;8.658;2023-02-23T11:53:04;100103.22;;;13.73;100.00
29121;BME280;16191;49.548;8.658;2023-02-23T11:55:35;100091.94;;;14.32;100.00
29121;BME280;16191;49.548;8.658;2023-02-23T11:58:32;100091.25;;;14.45;100.00
29121;BME280;16191;49.548;8.658;2023-02-23T12:03:23;100091.41;;;15.14;100.00
29121;BME280;16191;49.548;8.658;2023-02-23T12:05:55;100083.13;;;15.06;99.60
29121;BME280;16191;49.548;8.658;2023-02-23T12:08:39;100087.66;;;15.59;100.00
29121;BME280;16191;49.548;8.658;2023-02-23T12:11:13;100084.66;;;15.51;97.35
29121;BME280;16191;49.548;8.658;2023-02-23T12:13:57;100088.59;;;14.89;100.00
29121;BME280;16191;49.548;8.658;2023-02-23T12:16:37;100078.28;;;14.71;100.00
29121;BME280;16191;49.548;8.658;2023-02-23T12:19:23;100071.88;;;15.04;100.00
29121;BME280;16191;49.548;8.658;2023-02-23T12:21:59;100070.66;;;15.09;100.00
29121;BME280;16191;49.548;8.658;2023-02-23T12:24:44;100078.00;;;15.46;100.00
29121;BME280;16191;49.548;8.658;2023-02-23T12:32:43;100057.81;;;16.52;89.93
29121;BME280;16191;49.548;8.658;2023-02-23T12:35:24;100050.53;;;16.94;89.43
29121;BME280;16191;49.548;8.658;2023-02-23T12:41:02;100053.69;;;16.99;87.08
29121;BME280;16191;49.548;8.658;2023-02-23T12:43:38;100051.69;;;16.39;91.87
29121;BME280;16191;49.548;8.658;2023-02-23T12:46:10;100049.00;;;16.01;92.34
29121;BME280;16191;49.548;8.658;2023-02-23T12:49:05;100041.13;;;16.26;96.53
29121;BME280;16191;49.548;8.658;2023-02-23T12:51:49;100044.03;;;15.96;98.62
29121;BME280;16191;49.548;8.658;2023-02-23T12:54:18;100043.50;;;16.04;95.70
29121;BME280;16191;49.548;8.658;2023-02-23T12:57:04;100042.94;;;15.32;98.15
29121;BME280;16191;49.548;8.658;2023-02-23T13:02:22;100041.25;;;15.17;100.00
29121;BME280;16191;49.548;8.658;2023-02-23T13:07:52;100044.56;;;14.78;100.00
29121;BME280;16191;49.548;8.658;2023-02-23T13:10:46;100047.19;;;14.78;100.00
29121;BME280;16191;49.548;8.658;2023-02-23T13:13:38;100047.78;;;14.83;100.00
29121;BME280;16191;49.548;8.658;2023-02-23T13:19:02;100049.81;;;14.78;100.00
29121;BME280;16191;49.548;8.658;2023-02-23T13:21:36;100045.53;;;14.91;100.00
29121;BME280;16191;49.548;8.658;2023-02-23T13:24:11;100046.06;;;14.82;100.00
29121;BME280;16191;49.548;8.658;2023-02-23T13:26:54;100046.56;;;14.89;100.00
29121;BME280;16191;49.548;8.658;2023-02-23T13:29:44;100049.28;;;14.87;100.00
29121;BME280;16191;49.548;8.658;2023-02-23T13:32:16;100046.63;;;15.01;100.00
29121;BME280;16191;49.548;8.658;2023-02-23T13:34:53;100042.69;;;14.94;100.00
29121;BME280;16191;49.548;8.658;2023-02-23T13:37:54;100041.69;;;14.68;100.00
29121;BME280;16191;49.548;8.658;2023-02-23T13:43:17;100037.56;;;14.93;100.00
29121;BME280;16191;49.548;8.658;2023-02-23T13:46:11;100047.84;;;14.53;100.00
29121;BME280;16191;49.548;8.658;2023-02-23T13:49:03;100045.13;;;14.40;100.00
29121;BME280;16191;49.548;8.658;2023-02-23T13:51:40;100039.69;;;14.58;100.00
29121;BME280;16191;49.548;8.658;2023-02-23T13:56:43;100039.00;;;14.40;100.00
29121;BME280;16191;49.548;8.658;2023-02-23T13:59:17;100039.88;;;14.40;100.00
29121;BME280;16191;49.548;8.658;2023-02-23T14:01:48;100043.06;;;14.46;100.00
29121;BME280;16191;49.548;8.658;2023-02-23T14:04:19;100046.34;;;14.49;100.00
29121;BME280;16191;49.548;8.658;2023-02-23T14:10:04;100042.81;;;14.34;100.00
29121;BME280;16191;49.548;8.658;2023-02-23T14:12:38;100045.78;;;14.44;100.00
29121;BME280;16191;49.548;8.658;2023-02-23T14:18:03;100050.03;;;14.31;100.00
29121;BME280;16191;49.548;8.658;2023-02-23T14:20:45;100041.94;;;14.50;100.00
29121;BME280;16191;49.548;8.658;2023-02-23T14:25:50;100038.34;;;14.51;100.00
29121;BME280;16191;49.548;8.658;2023-02-23T14:30:59;100041.25;;;14.02;99.67
29121;BME280;16191;49.548;8.658;2023-02-23T14:39:28;100038.41;;;14.21;100.00
29121;BME280;16191;49.548;8.658;2023-02-23T14:41:56;100037.31;;;14.39;100.00